createdAt,value
2022-09-23T00:01:24.101Z,101488.19
2022-09-23T00:03:51.883Z,101497.03
2022-09-23T00:06:21.953Z,101492.63
2022-09-23T00:08:50.703Z,101494.44
2022-09-23T00:11:20.516Z,101489.19
2022-09-23T00:13:51.411Z,101483.88
2022-09-23T00:16:23.980Z,101481.28
2022-09-23T00:18:51.956Z,101481.31
2022-09-23T00:21:22.395Z,101480.47
2022-09-23T00:23:50.437Z,101479.56
2022-09-23T00:26:20.423Z,101484.91
2022-09-23T00:28:49.644Z,101480.50
2022-09-23T00:31:21.448Z,101477.91
2022-09-23T00:33:54.089Z,101477.03
2022-09-23T00:36:21.905Z,101475.31
2022-09-23T00:38:49.592Z,101475.31
2022-09-23T00:41:17.630Z,101476.19
2022-09-23T00:43:47.838Z,101466.53
2022-09-23T00:46:21.912Z,101466.53
2022-09-23T00:48:54.832Z,101468.31
2022-09-23T00:51:25.767Z,101459.50
2022-09-23T00:53:53.908Z,101457.75
2022-09-23T00:56:24.017Z,101463.91
2022-09-23T00:58:52.118Z,101460.38
2022-09-23T01:01:22.184Z,101457.75
2022-09-23T01:03:51.131Z,101455.06
2022-09-23T01:06:19.012Z,101452.44
2022-09-23T01:08:48.589Z,101445.34
2022-09-23T01:11:27.373Z,101448.00
2022-09-23T01:14:07.524Z,101452.47
2022-09-23T01:16:44.090Z,101447.19
2022-09-23T01:19:25.515Z,101445.41
2022-09-23T01:22:01.218Z,101445.44
2022-09-23T01:24:48.206Z,101432.22
2022-09-23T01:27:28.625Z,101422.53
2022-09-23T01:30:34.274Z,101430.44
2022-09-23T01:33:11.190Z,101424.25
2022-09-23T01:35:48.690Z,101417.19
2022-09-23T01:38:28.476Z,101423.38
2022-09-23T01:41:04.557Z,101418.97
2022-09-23T01:43:41.868Z,101421.59
2022-09-23T01:46:18.908Z,101413.66
2022-09-23T01:48:53.683Z,101420.66
2022-09-23T01:51:26.444Z,101417.06
2022-09-23T01:53:59.746Z,101413.56
2022-09-23T01:56:31.658Z,101413.56
2022-09-23T01:59:09.275Z,101413.53
2022-09-23T02:01:43.118Z,101410.84
2022-09-23T02:04:15.426Z,101413.44
2022-09-23T02:06:50.736Z,101405.47
2022-09-23T02:09:25.647Z,101406.38
2022-09-23T02:11:58.876Z,101403.75
2022-09-23T02:14:31.913Z,101404.66
2022-09-23T02:17:09.882Z,101402.84
2022-09-23T02:19:43.603Z,101400.19
2022-09-23T02:22:18.017Z,101393.16
2022-09-23T02:24:46.191Z,101391.38
2022-09-23T02:27:22.991Z,101398.44
2022-09-23T02:29:56.239Z,101393.16
2022-09-23T02:32:33.018Z,101393.16
2022-09-23T02:35:11.427Z,101391.31
2022-09-23T02:37:45.457Z,101386.91
2022-09-23T02:40:23.446Z,101378.09
2022-09-23T02:43:01.259Z,101378.94
2022-09-23T02:45:29.120Z,101381.56
2022-09-23T02:48:05.074Z,101386.81
2022-09-23T02:50:33.624Z,101387.72
2022-09-23T02:53:02.109Z,101377.06
2022-09-23T02:55:32.381Z,101366.47
2022-09-23T02:58:02.559Z,101366.44
2022-09-23T03:00:40.563Z,101368.22
2022-09-23T03:03:29.415Z,101370.00
2022-09-23T03:05:59.896Z,101363.78
2022-09-23T03:08:42.940Z,101360.25
2022-09-23T03:11:13.598Z,101360.25
2022-09-23T03:13:56.252Z,101362.88
2022-09-23T03:16:33.756Z,101359.38
2022-09-23T03:19:18.215Z,101357.59
2022-09-23T03:21:53.136Z,101357.59
2022-09-23T03:24:24.839Z,101354.94
2022-09-23T03:26:54.894Z,101356.69
2022-09-23T03:29:24.476Z,101354.91
2022-09-23T03:31:53.143Z,101347.84
2022-09-23T03:34:26.118Z,101339.00
2022-09-23T03:37:00.590Z,101346.97
2022-09-23T03:39:35.558Z,101343.44
2022-09-23T03:42:16.658Z,101341.66
2022-09-23T03:44:45.702Z,101339.88
2022-09-23T03:47:14.769Z,101339.88
2022-09-23T03:49:48.321Z,101337.25
2022-09-23T03:52:16.911Z,101326.66
2022-09-23T03:54:45.337Z,101333.81
2022-09-23T03:57:14.328Z,101332.06
2022-09-23T03:59:42.436Z,101335.63
2022-09-23T04:02:11.258Z,101332.16
2022-09-23T04:04:40.202Z,101330.41
2022-09-23T04:07:09.451Z,101326.91
2022-09-23T04:09:38.281Z,101316.34
2022-09-23T04:12:06.864Z,101309.31
2022-09-23T04:14:35.051Z,101319.91
2022-09-23T04:17:02.932Z,101313.78
2022-09-23T04:19:30.934Z,101319.13
2022-09-23T04:21:58.833Z,101306.78
2022-09-23T04:24:28.252Z,101303.25
2022-09-23T04:26:57.091Z,101302.41
2022-09-23T04:29:26.268Z,101300.69
2022-09-23T04:31:54.839Z,101298.06
2022-09-23T04:34:23.194Z,101302.50
2022-09-23T04:36:51.753Z,101303.38
2022-09-23T04:39:19.604Z,101302.47
2022-09-23T04:41:52.360Z,101297.19
2022-09-23T04:44:21.177Z,101299.88
2022-09-23T04:46:49.266Z,101299.88
2022-09-23T04:49:17.330Z,101293.69
2022-09-23T04:51:45.662Z,101295.50
2022-09-23T04:54:14.719Z,101301.66
2022-09-23T04:56:43.065Z,101297.22
2022-09-23T04:59:12.280Z,101294.53
2022-09-23T05:01:40.183Z,101297.19
2022-09-23T05:04:13.796Z,101286.53
2022-09-23T05:06:45.234Z,101298.06
2022-09-23T05:09:17.097Z,101290.94
2022-09-23T05:11:45.716Z,101294.50
2022-09-23T05:14:15.183Z,101299.81
2022-09-23T05:16:43.011Z,101295.38
2022-09-23T05:19:11.730Z,101294.50
2022-09-23T05:21:39.518Z,101293.56
2022-09-23T05:24:07.837Z,101297.94
2022-09-23T05:26:38.951Z,101297.91
2022-09-23T05:29:07.303Z,101295.25
2022-09-23T05:31:36.940Z,101291.66
2022-09-23T05:34:05.943Z,101296.06
2022-09-23T05:36:38.694Z,101282.75
2022-09-23T05:39:07.950Z,101282.66
2022-09-23T05:41:36.259Z,101289.63
2022-09-23T05:44:04.276Z,101279.06
2022-09-23T05:46:33.114Z,101282.44
2022-09-23T05:49:05.317Z,101286.00
2022-09-23T05:51:34.788Z,101283.25
2022-09-23T05:54:03.930Z,101283.16
2022-09-23T05:56:32.877Z,101286.72
2022-09-23T05:59:02.878Z,101287.47
2022-09-23T06:01:33.849Z,101285.63
2022-09-23T06:04:05.785Z,101287.34
2022-09-23T06:06:36.021Z,101294.31
2022-09-23T06:09:05.748Z,101286.38
2022-09-23T06:11:35.298Z,101280.16
2022-09-23T06:14:03.797Z,101285.41
2022-09-23T06:16:34.596Z,101273.03
2022-09-23T06:19:06.577Z,101275.63
2022-09-23T06:21:35.544Z,101285.25
2022-09-23T06:24:04.003Z,101288.72
2022-09-23T06:26:35.149Z,101285.97
2022-09-23T06:29:08.671Z,101279.75
2022-09-23T06:31:36.817Z,101279.69
2022-09-23T06:34:11.837Z,101277.88
2022-09-23T06:36:44.337Z,101277.78
2022-09-23T06:39:13.402Z,101279.44
2022-09-23T06:41:41.237Z,101273.25
2022-09-23T06:44:13.496Z,101280.44
2022-09-23T06:46:41.696Z,101280.38
2022-09-23T06:49:11.862Z,101289.25
2022-09-23T06:51:40.207Z,101274.19
2022-09-23T06:54:08.355Z,101278.66
2022-09-23T06:56:39.010Z,101277.78
2022-09-23T06:59:08.252Z,101284.78
2022-09-23T07:01:36.193Z,101282.16
2022-09-23T07:04:07.650Z,101275.94
2022-09-23T07:06:37.506Z,101278.47
2022-09-23T07:09:06.551Z,101281.13
2022-09-23T07:11:34.525Z,101274.97
2022-09-23T07:14:02.333Z,101281.13
2022-09-23T07:16:30.207Z,101274.06
2022-09-23T07:18:58.105Z,101274.09
2022-09-23T07:21:25.939Z,101275.06
2022-09-23T07:23:58.168Z,101274.94
2022-09-23T07:26:26.621Z,101269.56
2022-09-23T07:28:56.696Z,101272.00
2022-09-23T07:31:37.675Z,101271.84
2022-09-23T07:34:06.615Z,101264.63
2022-09-23T07:36:37.139Z,101264.41
2022-09-23T07:39:06.390Z,101270.34
2022-09-23T07:41:35.531Z,101271.97
2022-09-23T07:44:04.294Z,101274.50
2022-09-23T07:46:33.990Z,101284.22
2022-09-23T07:49:02.983Z,101274.34
2022-09-23T07:51:36.018Z,101269.75
2022-09-23T07:54:08.609Z,101263.38
2022-09-23T07:56:37.920Z,101263.03
2022-09-23T07:59:08.529Z,101260.88
2022-09-23T08:01:38.871Z,101257.91
2022-09-23T08:04:08.903Z,101251.50
2022-09-23T08:06:36.908Z,101257.44
2022-09-23T08:09:04.979Z,101259.97
2022-09-23T08:11:35.119Z,101260.66
2022-09-23T08:14:02.917Z,101263.22
2022-09-23T08:16:30.808Z,101257.72
2022-09-23T08:18:58.647Z,101259.31
2022-09-23T08:21:26.579Z,101257.38
2022-09-23T08:23:54.483Z,101259.09
2022-09-23T08:26:22.631Z,101249.38
2022-09-23T08:28:54.612Z,101258.28
2022-09-23T08:31:23.135Z,101257.50
2022-09-23T08:33:54.949Z,101259.03
2022-09-23T08:36:22.846Z,101265.13
2022-09-23T08:38:50.625Z,101255.06
2022-09-23T08:41:25.344Z,101261.06
2022-09-23T08:43:58.860Z,101254.53
2022-09-23T08:46:32.286Z,101251.69
2022-09-23T08:49:01.971Z,101255.81
2022-09-23T08:51:36.656Z,101253.00
2022-09-23T08:54:04.652Z,101250.25
2022-09-23T08:56:35.389Z,101251.09
2022-09-23T08:59:10.585Z,101251.72
2022-09-23T09:01:44.033Z,101247.13
2022-09-23T09:04:19.376Z,101247.81
2022-09-23T09:06:54.337Z,101250.28
2022-09-23T09:09:27.791Z,101242.94
2022-09-23T09:12:04.000Z,101244.78
2022-09-23T09:14:42.354Z,101245.59
2022-09-23T09:17:21.105Z,101243.63
2022-09-23T09:19:56.898Z,101241.69
2022-09-23T09:22:42.436Z,101237.91
2022-09-23T09:25:23.832Z,101239.50
2022-09-23T09:27:52.966Z,101239.31
2022-09-23T09:30:23.007Z,101232.06
2022-09-23T09:32:58.704Z,101229.91
2022-09-23T09:35:36.787Z,101227.00
2022-09-23T09:38:05.679Z,101228.72
2022-09-23T09:40:35.336Z,101218.53
2022-09-23T09:43:04.572Z,101213.69
2022-09-23T09:45:57.559Z,101214.19
2022-09-23T09:48:33.095Z,101209.28
2022-09-23T09:51:19.391Z,101205.00
2022-09-23T09:53:47.073Z,101194.47
2022-09-23T09:56:16.493Z,101195.84
2022-09-23T09:58:49.396Z,101194.22
2022-09-23T10:01:26.750Z,101189.97
2022-09-23T10:03:59.184Z,101189.84
2022-09-23T10:06:29.637Z,101185.41
2022-09-23T10:09:10.717Z,101181.91
2022-09-23T10:11:39.711Z,101181.03
2022-09-23T10:14:13.360Z,101171.97
2022-09-23T10:16:42.583Z,101174.72
2022-09-23T10:19:23.292Z,101175.38
2022-09-23T10:21:54.524Z,101174.34
2022-09-23T10:24:25.852Z,101167.16
2022-09-23T10:26:57.966Z,101157.94
2022-09-23T10:29:30.497Z,101167.03
2022-09-23T10:32:25.569Z,101164.06
2022-09-23T10:34:56.924Z,101164.75
2022-09-23T10:37:34.171Z,101164.56
2022-09-23T10:40:30.249Z,101166.06
2022-09-23T10:43:38.482Z,101153.94
2022-09-23T10:46:27.291Z,101160.00
2022-09-23T10:49:13.630Z,101151.56
2022-09-23T10:51:49.216Z,101158.31
2022-09-23T10:54:25.908Z,101155.50
2022-09-23T10:57:00.902Z,101148.00
2022-09-23T10:59:56.653Z,101162.22
2022-09-23T11:02:45.837Z,101158.25
2022-09-23T11:05:26.398Z,101146.25
2022-09-23T11:08:05.914Z,101148.75
2022-09-23T11:10:54.872Z,101138.59
2022-09-23T11:13:44.955Z,101137.59
2022-09-23T11:16:25.701Z,101126.13
2022-09-23T11:19:16.066Z,101123.25
2022-09-23T11:22:07.114Z,101117.94
2022-09-23T11:24:58.209Z,101121.88
2022-09-23T11:27:39.750Z,101115.97
2022-09-23T11:30:13.457Z,101114.50
2022-09-23T11:35:42.679Z,101109.31
2022-09-23T11:38:21.259Z,101102.34
2022-09-23T11:40:54.787Z,101102.53
2022-09-23T11:43:25.140Z,101094.94
2022-09-23T11:45:59.667Z,101099.59
2022-09-23T11:48:35.098Z,101083.50
2022-09-23T11:51:07.912Z,101085.50
2022-09-23T11:53:46.484Z,101089.84
2022-09-23T11:56:32.266Z,101085.03
2022-09-23T11:59:11.431Z,101078.06
2022-09-23T12:01:46.577Z,101075.84
2022-09-23T12:04:24.425Z,101078.13
2022-09-23T12:07:05.868Z,101070.63
2022-09-23T12:09:57.666Z,101064.44
2022-09-23T12:12:33.423Z,101069.16
2022-09-23T12:15:08.047Z,101065.81
2022-09-23T12:17:50.551Z,101069.94
2022-09-23T12:20:37.040Z,101062.47
2022-09-23T12:23:17.203Z,101066.84
2022-09-23T12:25:51.092Z,101059.66
2022-09-23T12:28:23.366Z,101057.16
2022-09-23T12:30:53.524Z,101048.25
2022-09-23T12:33:24.728Z,101051.88
2022-09-23T12:35:54.740Z,101042.59
2022-09-23T12:38:26.630Z,101052.66
2022-09-23T12:40:57.530Z,101049.63
2022-09-23T12:44:00.970Z,101047.16
2022-09-23T12:46:29.562Z,101042.16
2022-09-23T12:49:03.115Z,101039.00
2022-09-23T12:51:31.794Z,101037.78
2022-09-23T12:54:25.219Z,101036.13
2022-09-23T12:57:13.432Z,101041.09
2022-09-23T13:00:14.403Z,101029.41
2022-09-23T13:02:44.378Z,101022.38
2022-09-23T13:05:39.968Z,101018.88
2022-09-23T13:08:13.268Z,101007.78
2022-09-23T13:10:48.632Z,101011.25
2022-09-23T13:13:25.781Z,101012.47
2022-09-23T13:15:55.032Z,101016.09
2022-09-23T13:18:59.818Z,101014.19
2022-09-23T13:22:13.820Z,101011.59
2022-09-23T13:24:53.328Z,101013.41
2022-09-23T13:27:26.722Z,101009.34
2022-09-23T13:30:04.272Z,101006.53
2022-09-23T13:32:37.861Z,101001.50
2022-09-23T13:35:17.927Z,101004.88
2022-09-23T13:37:51.630Z,101002.41
2022-09-23T13:40:24.583Z,100997.03
2022-09-23T13:42:58.535Z,101000.84
2022-09-23T13:45:34.007Z,100990.56
2022-09-23T13:48:15.334Z,100992.91
2022-09-23T13:50:49.040Z,100991.09
2022-09-23T13:53:23.557Z,100985.69
2022-09-23T13:56:02.381Z,100991.97
2022-09-23T13:58:32.991Z,100987.28
2022-09-23T14:01:02.436Z,100994.06
2022-09-23T14:03:36.127Z,100997.69
2022-09-23T14:06:08.531Z,100993.00
2022-09-23T14:08:36.908Z,100989.19
2022-09-23T14:11:06.268Z,100989.97
2022-09-23T14:13:41.419Z,100983.81
2022-09-23T14:16:14.785Z,100979.72
2022-09-23T14:18:46.273Z,100973.66
2022-09-23T14:21:33.796Z,100978.06
2022-09-23T14:24:14.040Z,100969.50
2022-09-23T14:26:43.817Z,100977.59
2022-09-23T14:29:16.420Z,100972.91
2022-09-23T14:31:56.784Z,100965.59
2022-09-23T14:34:42.812Z,100972.00
2022-09-23T14:37:50.745Z,100977.72
2022-09-23T14:40:20.866Z,100970.25
2022-09-23T14:42:52.460Z,100966.97
2022-09-23T14:45:23.603Z,100972.19
2022-09-23T14:47:57.978Z,100969.22
2022-09-23T14:50:40.748Z,100964.19
2022-09-23T14:53:33.993Z,100971.13
2022-09-23T14:56:26.000Z,100965.75
2022-09-23T14:58:55.383Z,100968.34
2022-09-23T15:01:39.625Z,100958.47
2022-09-23T15:04:15.843Z,100960.28
2022-09-23T15:06:49.153Z,100950.31
2022-09-23T15:09:23.587Z,100952.41
2022-09-23T15:11:58.435Z,100954.50
2022-09-23T15:14:39.074Z,100950.84
2022-09-23T15:17:23.725Z,100944.31
2022-09-23T15:19:56.802Z,100947.75
2022-09-23T15:22:25.302Z,100940.81
2022-09-23T15:24:54.235Z,100941.00
2022-09-23T15:27:33.298Z,100943.00
2022-09-23T15:30:16.071Z,100936.72
2022-09-23T15:32:44.573Z,100935.00
2022-09-23T15:35:18.844Z,100938.72
2022-09-23T15:37:49.003Z,100933.66
2022-09-23T15:40:21.191Z,100928.31
2022-09-23T15:42:51.478Z,100926.56
2022-09-23T15:45:21.931Z,100931.94
2022-09-23T15:47:52.146Z,100922.56
2022-09-23T15:50:21.403Z,100928.25
2022-09-23T15:52:49.156Z,100929.47
2022-09-23T15:55:19.483Z,100919.88
2022-09-23T15:57:48.078Z,100924.56
2022-09-23T16:00:16.826Z,100920.13
2022-09-23T16:02:48.016Z,100914.13
2022-09-23T16:05:24.140Z,100923.44
2022-09-23T16:07:53.306Z,100920.13
2022-09-23T16:10:23.553Z,100914.16
2022-09-23T16:12:54.869Z,100917.84
2022-09-23T16:15:24.476Z,100925.25
2022-09-23T16:17:52.646Z,100917.47
2022-09-23T16:20:22.223Z,100928.56
2022-09-23T16:22:55.327Z,100923.53
2022-09-23T16:25:28.218Z,100923.03
2022-09-23T16:27:57.075Z,100920.59
2022-09-23T16:30:25.201Z,100921.78
2022-09-23T16:32:53.089Z,100918.44
2022-09-23T16:35:23.210Z,100924.03
2022-09-23T16:37:52.826Z,100924.31
2022-09-23T16:40:22.302Z,100912.16
2022-09-23T16:42:52.056Z,100920.44
2022-09-23T16:45:23.091Z,100918.97
2022-09-23T16:47:52.331Z,100915.78
2022-09-23T16:50:23.768Z,100917.84
2022-09-23T16:52:54.723Z,100910.88
2022-09-23T16:55:24.665Z,100913.84
2022-09-23T16:57:53.931Z,100914.91
2022-09-23T17:00:40.124Z,100907.97
2022-09-23T17:03:25.394Z,100915.41
2022-09-23T17:05:55.451Z,100909.47
2022-09-23T17:08:23.386Z,100910.53
2022-09-23T17:10:58.563Z,100913.34
2022-09-23T17:13:27.007Z,100917.09
2022-09-23T17:15:55.594Z,100910.13
2022-09-23T17:18:23.780Z,100900.50
2022-09-23T17:21:01.157Z,100907.75
2022-09-23T17:23:31.322Z,100901.66
2022-09-23T17:26:00.133Z,100902.72
2022-09-23T17:28:28.307Z,100905.47
2022-09-23T17:31:00.338Z,100908.28
2022-09-23T17:33:30.371Z,100902.19
2022-09-23T17:36:00.345Z,100905.88
2022-09-23T17:38:29.407Z,100903.34
2022-09-23T17:41:01.222Z,100905.22
2022-09-23T17:43:31.423Z,100913.34
2022-09-23T17:46:05.138Z,100910.69
2022-09-23T17:48:35.598Z,100900.06
2022-09-23T17:51:06.972Z,100895.78
2022-09-23T17:53:36.942Z,100907.47
2022-09-23T17:56:07.180Z,100908.50
2022-09-23T17:58:36.874Z,100915.72
2022-09-23T18:01:05.725Z,100902.50
2022-09-23T18:03:33.632Z,100906.16
2022-09-23T18:06:12.161Z,100908.09
2022-09-23T18:08:40.837Z,100902.81
2022-09-23T18:11:16.178Z,100902.00
2022-09-23T18:13:49.653Z,100901.19
2022-09-23T18:16:18.618Z,100904.78
2022-09-23T18:18:51.497Z,100908.44
2022-09-23T18:21:21.070Z,100907.59
2022-09-23T18:23:49.665Z,100910.28
2022-09-23T18:26:19.095Z,100905.94
2022-09-23T18:28:47.962Z,100903.31
2022-09-23T18:31:16.599Z,100907.81
2022-09-23T18:33:44.382Z,100906.94
2022-09-23T18:36:12.228Z,100916.75
2022-09-23T18:38:41.352Z,100909.81
2022-09-23T18:41:09.382Z,100911.69
2022-09-23T18:43:41.537Z,100912.69
2022-09-23T18:46:14.057Z,100909.19
2022-09-23T18:49:00.037Z,100912.78
2022-09-23T18:51:29.499Z,100910.31
2022-09-23T18:54:00.706Z,100908.63
2022-09-23T18:56:33.580Z,100908.63
2022-09-23T18:59:02.275Z,100904.22
2022-09-23T19:01:30.388Z,100904.31
2022-09-23T19:03:59.782Z,100905.28
2022-09-23T19:06:27.556Z,100909.81
2022-09-23T19:08:56.092Z,100905.38
2022-09-23T19:11:25.513Z,100906.34
2022-09-23T19:13:55.215Z,100902.84
2022-09-23T19:16:24.239Z,100903.81
2022-09-23T19:18:52.690Z,100902.97
2022-09-23T19:21:22.522Z,100899.47
2022-09-23T19:23:53.137Z,100903.97
2022-09-23T19:26:22.798Z,100902.28
2022-09-23T19:28:54.124Z,100905.94
2022-09-23T19:31:25.035Z,100915.91
2022-09-23T19:33:57.025Z,100907.06
2022-09-23T19:36:32.485Z,100905.31
2022-09-23T19:39:03.093Z,100900.97
2022-09-23T19:41:33.350Z,100909.03
2022-09-23T19:44:03.683Z,100898.50
2022-09-23T19:46:32.462Z,100896.88
2022-09-23T19:49:01.385Z,100901.41
2022-09-23T19:51:29.818Z,100900.72
2022-09-23T19:53:58.197Z,100902.56
2022-09-23T19:56:26.306Z,100895.53
2022-09-23T19:58:55.728Z,100881.47
2022-09-23T20:01:26.224Z,100892.28
2022-09-23T20:03:56.176Z,100883.56
2022-09-23T20:06:24.496Z,100881.81
2022-09-23T20:08:52.723Z,100875.69
2022-09-23T20:11:28.105Z,100874.84
2022-09-23T20:14:01.017Z,100869.50
2022-09-23T20:16:33.052Z,100865.09
2022-09-23T20:19:03.171Z,100863.38
2022-09-23T20:21:31.300Z,100860.72
2022-09-23T20:23:59.359Z,100858.09
2022-09-23T20:26:44.938Z,100857.34
2022-09-23T20:29:12.978Z,100851.13
2022-09-23T20:31:42.201Z,100848.41
2022-09-23T20:34:11.135Z,100850.13
2022-09-23T20:36:41.622Z,100849.25
2022-09-23T20:39:10.886Z,100848.28
2022-09-23T20:41:39.848Z,100843.84
2022-09-23T20:44:11.557Z,100841.19
2022-09-23T20:46:42.868Z,100842.94
2022-09-23T20:49:14.679Z,100853.63
2022-09-23T20:51:42.905Z,100848.28
2022-09-23T20:54:11.969Z,100842.94
2022-09-23T20:56:39.743Z,100848.34
2022-09-23T20:59:07.719Z,100842.19
2022-09-23T21:01:36.908Z,100839.44
2022-09-23T21:04:06.113Z,100844.78
2022-09-23T21:06:36.886Z,100844.78
2022-09-23T21:09:06.147Z,100838.59
2022-09-23T21:11:34.237Z,100844.84
2022-09-23T21:14:02.620Z,100844.91
2022-09-23T21:16:31.027Z,100842.38
2022-09-23T21:18:59.708Z,100840.69
2022-09-23T21:21:27.826Z,100839.81
2022-09-23T21:24:17.360Z,100837.16
2022-09-23T21:26:47.832Z,100836.47
2022-09-23T21:29:15.734Z,100838.22
2022-09-23T21:31:43.495Z,100838.22
2022-09-23T21:34:12.643Z,100832.88
2022-09-23T21:36:44.020Z,100836.59
2022-09-23T21:39:13.374Z,100841.09
2022-09-23T21:41:41.204Z,100838.44
2022-09-23T21:44:09.122Z,100840.16
2022-09-23T21:46:38.037Z,100830.34
2022-09-23T21:49:06.527Z,100839.31
2022-09-23T21:51:40.682Z,100844.66
2022-09-23T21:54:15.541Z,100836.69
2022-09-23T21:56:44.669Z,100832.22
2022-09-23T21:59:12.514Z,100834.97
2022-09-23T22:01:43.690Z,100838.56
2022-09-23T22:04:16.931Z,100832.34
2022-09-23T22:06:45.797Z,100833.28
2022-09-23T22:09:17.266Z,100831.47
2022-09-23T22:12:02.797Z,100829.72
2022-09-23T22:14:31.088Z,100835.13
2022-09-23T22:17:01.514Z,100837.84
2022-09-23T22:19:34.678Z,100828.09
2022-09-23T22:22:03.356Z,100835.19
2022-09-23T22:24:32.472Z,100826.31
2022-09-23T22:27:03.217Z,100821.03
2022-09-23T22:29:48.398Z,100821.91
2022-09-23T22:32:41.650Z,100822.75
2022-09-23T22:35:10.865Z,100824.63
2022-09-23T22:37:39.069Z,100817.53
2022-09-23T22:40:10.658Z,100824.75
2022-09-23T22:42:39.367Z,100824.75
2022-09-23T22:45:08.892Z,100822.16
2022-09-23T22:47:37.725Z,100816.91
2022-09-23T22:50:06.057Z,100810.72
2022-09-23T22:52:34.954Z,100815.19
2022-09-23T22:55:03.658Z,100821.38
2022-09-23T22:57:33.020Z,100816.06
2022-09-23T23:00:00.862Z,100816.91
2022-09-23T23:02:28.643Z,100809.78
2022-09-23T23:04:58.516Z,100814.31
2022-09-23T23:07:26.384Z,100808.03
2022-09-23T23:09:54.194Z,100807.22
2022-09-23T23:12:22.370Z,100808.09
2022-09-23T23:14:51.534Z,100801.88
2022-09-23T23:17:19.468Z,100809.03
2022-09-23T23:19:48.044Z,100807.22
2022-09-23T23:22:15.814Z,100808.97
2022-09-23T23:24:43.683Z,100800.09
2022-09-23T23:27:11.490Z,100807.22
2022-09-23T23:29:39.312Z,100810.84
2022-09-23T23:32:09.792Z,100800.22
2022-09-23T23:34:37.638Z,100814.50
2022-09-23T23:37:05.397Z,100820.19
2022-09-23T23:39:34.887Z,100824.81
2022-09-23T23:42:04.097Z,100823.97
2022-09-23T23:44:32.668Z,100823.03
2022-09-23T23:47:00.533Z,100829.22
2022-09-23T23:49:30.231Z,100830.09
2022-09-23T23:51:58.080Z,100831.84
2022-09-23T23:54:25.869Z,100830.00
2022-09-23T23:56:53.845Z,100821.94
2022-09-23T23:59:21.962Z,100825.41
